Highest pressure

Not for real navigation. The accuracy of this data is not assured See disclaimer for more information



ICAO NAME COUNTRY WIND Kt GUST Kt VIS m TEMP/DEW C BARO METAR
KCPW Pagosa Springs, Wolf Creek Pas CO United States 0 0 9999 11/-6 30.73 KCPW 191353Z AUTO 00000KT 10SM CAVOK 11/M06 A3073 RMK AO2
K0CO 6 17 9999 8/1 30.71 K0CO 191414Z AUTO 33006G17KT 10SM CAVOK 08/01 A3071 RMK AO2
KCCU Copper Mountain, Red Cliff Pas CO United States 3 0 9999 15/-5 30.68 KCCU 191349Z AUTO 15003KT 10SM CAVOK 15/M05 A3068 RMK AO2
K4BM Wilkerson Pass CO United States 0 0 9999 13/-7 30.64 K4BM 191355Z AUTO 00000KT 10SM CAVOK 13/M07 A3064 RMK AO2 LTG NOOP NW
K5SM Sunlight CO United States 6 0 9999 12/-7 30.60 K5SM 191342Z AUTO 21006KT 10SM CAVOK 12/M07 A3060 RMK AO2

Show more